sensor_id;sensor_type;location;lat;lon;timestamp;pressure;altitude;pressure_sealevel;temperature;humidity
79374;BME280;68844;53.128;17.958;2023-09-30T00:01:46;101003.38;;;17.85;78.46
79374;BME280;68844;53.128;17.958;2023-09-30T00:04:13;101010.36;;;17.84;78.67
79374;BME280;68844;53.128;17.958;2023-09-30T00:06:39;101008.48;;;17.83;78.66
79374;BME280;68844;53.128;17.958;2023-09-30T00:09:06;101010.91;;;17.84;78.70
79374;BME280;68844;53.128;17.958;2023-09-30T00:11:33;101012.06;;;17.85;78.48
79374;BME280;68844;53.128;17.958;2023-09-30T00:14:01;101011.65;;;17.86;77.96
79374;BME280;68844;53.128;17.958;2023-09-30T00:16:28;101013.70;;;17.87;78.32
79374;BME280;68844;53.128;17.958;2023-09-30T00:18:54;101012.19;;;17.88;78.44
79374;BME280;68844;53.128;17.958;2023-09-30T00:21:21;101015.14;;;17.85;78.51
79374;BME280;68844;53.128;17.958;2023-09-30T00:23:48;101014.39;;;17.85;78.26
79374;BME280;68844;53.128;17.958;2023-09-30T00:26:15;101007.41;;;17.81;78.33
79374;BME280;68844;53.128;17.958;2023-09-30T00:28:43;101007.41;;;17.81;78.44
79374;BME280;68844;53.128;17.958;2023-09-30T00:31:10;101006.55;;;17.83;78.17
79374;BME280;68844;53.128;17.958;2023-09-30T00:33:37;101004.11;;;17.84;78.73
79374;BME280;68844;53.128;17.958;2023-09-30T00:39:37;101007.25;;;17.81;78.40
79374;BME280;68844;53.128;17.958;2023-09-30T00:42:03;101009.87;;;17.84;78.22
79374;BME280;68844;53.128;17.958;2023-09-30T00:44:31;101014.61;;;17.87;78.13
79374;BME280;68844;53.128;17.958;2023-09-30T00:46:58;101015.13;;;17.89;78.12
79374;BME280;68844;53.128;17.958;2023-09-30T00:49:26;101015.70;;;17.91;77.93
79374;BME280;68844;53.128;17.958;2023-09-30T00:51:55;101014.89;;;17.90;77.68
79374;BME280;68844;53.128;17.958;2023-09-30T00:54:24;101013.61;;;17.90;77.32
79374;BME280;68844;53.128;17.958;2023-09-30T00:56:54;101013.45;;;17.94;76.93
79374;BME280;68844;53.128;17.958;2023-09-30T00:59:29;101015.72;;;17.99;77.17
79374;BME280;68844;53.128;17.958;2023-09-30T01:01:58;101016.33;;;18.00;77.21
79374;BME280;68844;53.128;17.958;2023-09-30T01:04:27;101011.83;;;18.01;77.23
79374;BME280;68844;53.128;17.958;2023-09-30T01:06:53;101010.05;;;17.98;76.98
79374;BME280;68844;53.128;17.958;2023-09-30T01:09:20;101016.94;;;17.93;77.30
79374;BME280;68844;53.128;17.958;2023-09-30T01:11:47;101020.23;;;17.92;77.30
79374;BME280;68844;53.128;17.958;2023-09-30T01:14:28;101022.02;;;17.94;77.47
79374;BME280;68844;53.128;17.958;2023-09-30T01:16:56;101028.63;;;17.94;77.14
79374;BME280;68844;53.128;17.958;2023-09-30T01:19:25;101027.64;;;17.93;77.09
79374;BME280;68844;53.128;17.958;2023-09-30T01:21:55;101026.05;;;17.93;76.72
79374;BME280;68844;53.128;17.958;2023-09-30T01:24:26;101021.80;;;17.92;76.67
79374;BME280;68844;53.128;17.958;2023-09-30T01:26:53;101024.20;;;17.95;76.71
79374;BME280;68844;53.128;17.958;2023-09-30T01:29:20;101023.03;;;17.96;76.97
79374;BME280;68844;53.128;17.958;2023-09-30T01:31:49;101025.77;;;17.95;76.80
79374;BME280;68844;53.128;17.958;2023-09-30T01:34:16;101026.99;;;17.94;76.77
79374;BME280;68844;53.128;17.958;2023-09-30T01:36:43;101027.89;;;17.92;76.64
79374;BME280;68844;53.128;17.958;2023-09-30T01:39:12;101029.91;;;17.91;76.46
79374;BME280;68844;53.128;17.958;2023-09-30T01:41:40;101030.59;;;17.87;76.78
79374;BME280;68844;53.128;17.958;2023-09-30T01:44:07;101032.24;;;17.81;76.72
79374;BME280;68844;53.128;17.958;2023-09-30T01:46:37;101030.70;;;17.76;76.62
79374;BME280;68844;53.128;17.958;2023-09-30T01:49:04;101032.63;;;17.67;76.14
79374;BME280;68844;53.128;17.958;2023-09-30T01:51:30;101034.35;;;17.59;76.57
79374;BME280;68844;53.128;17.958;2023-09-30T01:53:58;101039.61;;;17.49;76.85
79374;BME280;68844;53.128;17.958;2023-09-30T01:56:25;101037.80;;;17.41;77.60
79374;BME280;68844;53.128;17.958;2023-09-30T01:58:52;101040.29;;;17.30;77.63
79374;BME280;68844;53.128;17.958;2023-09-30T02:01:20;101044.48;;;17.24;77.68
79374;BME280;68844;53.128;17.958;2023-09-30T02:03:47;101049.90;;;17.19;77.65
79374;BME280;68844;53.128;17.958;2023-09-30T02:06:13;101052.73;;;17.17;77.85
79374;BME280;68844;53.128;17.958;2023-09-30T02:08:40;101052.83;;;17.16;78.10
79374;BME280;68844;53.128;17.958;2023-09-30T02:11:07;101054.28;;;17.11;78.19
79374;BME280;68844;53.128;17.958;2023-09-30T02:13:34;101050.89;;;17.04;78.18
79374;BME280;68844;53.128;17.958;2023-09-30T02:16:03;101055.84;;;17.00;78.35
79374;BME280;68844;53.128;17.958;2023-09-30T02:18:30;101059.41;;;17.04;78.28
79374;BME280;68844;53.128;17.958;2023-09-30T02:21:00;101060.20;;;17.08;78.58
79374;BME280;68844;53.128;17.958;2023-09-30T02:23:26;101059.02;;;17.07;78.44
79374;BME280;68844;53.128;17.958;2023-09-30T02:25:53;101062.67;;;17.04;78.45
79374;BME280;68844;53.128;17.958;2023-09-30T02:28:20;101060.20;;;16.99;78.86
79374;BME280;68844;53.128;17.958;2023-09-30T02:30:47;101060.77;;;16.94;78.55
79374;BME280;68844;53.128;17.958;2023-09-30T02:33:15;101065.31;;;16.89;78.81
79374;BME280;68844;53.128;17.958;2023-09-30T02:35:45;101062.39;;;16.83;79.15
79374;BME280;68844;53.128;17.958;2023-09-30T02:38:12;101066.85;;;16.73;79.15
79374;BME280;68844;53.128;17.958;2023-09-30T02:40:42;101062.48;;;16.65;79.41
79374;BME280;68844;53.128;17.958;2023-09-30T02:43:13;101062.60;;;16.62;79.36
79374;BME280;68844;53.128;17.958;2023-09-30T02:45:40;101064.09;;;16.60;79.71
79374;BME280;68844;53.128;17.958;2023-09-30T02:48:06;101064.81;;;16.60;80.17
79374;BME280;68844;53.128;17.958;2023-09-30T02:50:35;101070.95;;;16.61;80.41
79374;BME280;68844;53.128;17.958;2023-09-30T02:53:02;101074.46;;;16.62;80.89
79374;BME280;68844;53.128;17.958;2023-09-30T02:55:29;101081.33;;;16.63;80.75
79374;BME280;68844;53.128;17.958;2023-09-30T02:57:55;101087.06;;;16.70;80.68
79374;BME280;68844;53.128;17.958;2023-09-30T03:00:22;101091.48;;;16.79;81.05
79374;BME280;68844;53.128;17.958;2023-09-30T03:02:53;101094.29;;;16.87;81.25
79374;BME280;68844;53.128;17.958;2023-09-30T03:05:21;101093.79;;;16.93;81.75
79374;BME280;68844;53.128;17.958;2023-09-30T03:07:48;101095.46;;;16.97;81.22
79374;BME280;68844;53.128;17.958;2023-09-30T03:10:19;101093.21;;;17.00;81.48
79374;BME280;68844;53.128;17.958;2023-09-30T03:12:50;101090.96;;;17.06;81.28
79374;BME280;68844;53.128;17.958;2023-09-30T03:15:18;101091.53;;;17.08;81.66
79374;BME280;68844;53.128;17.958;2023-09-30T03:17:45;101095.67;;;17.07;81.77
79374;BME280;68844;53.128;17.958;2023-09-30T03:20:12;101091.95;;;17.05;81.73
79374;BME280;68844;53.128;17.958;2023-09-30T03:22:42;101099.02;;;17.05;81.57
79374;BME280;68844;53.128;17.958;2023-09-30T03:25:09;101101.96;;;17.09;81.51
79374;BME280;68844;53.128;17.958;2023-09-30T03:27:36;101104.38;;;17.10;81.35
79374;BME280;68844;53.128;17.958;2023-09-30T03:30:04;101108.70;;;17.11;81.51
79374;BME280;68844;53.128;17.958;2023-09-30T03:32:32;101115.72;;;17.12;81.99
79374;BME280;68844;53.128;17.958;2023-09-30T03:35:00;101116.39;;;17.11;81.56
79374;BME280;68844;53.128;17.958;2023-09-30T03:37:27;101119.39;;;17.11;81.83
79374;BME280;68844;53.128;17.958;2023-09-30T03:39:55;101124.64;;;17.10;82.25
79374;BME280;68844;53.128;17.958;2023-09-30T03:42:22;101128.23;;;17.10;82.53
79374;BME280;68844;53.128;17.958;2023-09-30T03:44:49;101130.88;;;17.07;83.20
79374;BME280;68844;53.128;17.958;2023-09-30T03:47:16;101137.30;;;17.07;82.96
79374;BME280;68844;53.128;17.958;2023-09-30T03:49:43;101138.11;;;17.11;83.07
79374;BME280;68844;53.128;17.958;2023-09-30T03:52:11;101141.71;;;17.15;83.61
79374;BME280;68844;53.128;17.958;2023-09-30T03:54:38;101148.33;;;17.19;84.11
79374;BME280;68844;53.128;17.958;2023-09-30T03:57:05;101153.42;;;17.22;83.90
79374;BME280;68844;53.128;17.958;2023-09-30T03:59:31;101160.69;;;17.29;83.04
79374;BME280;68844;53.128;17.958;2023-09-30T04:01:58;101164.69;;;17.32;82.67
79374;BME280;68844;53.128;17.958;2023-09-30T04:04:25;101172.00;;;17.32;82.21
79374;BME280;68844;53.128;17.958;2023-09-30T04:06:52;101171.23;;;17.31;81.69
79374;BME280;68844;53.128;17.958;2023-09-30T04:09:19;101178.28;;;17.32;81.22
79374;BME280;68844;53.128;17.958;2023-09-30T04:11:46;101180.33;;;17.33;81.17
79374;BME280;68844;53.128;17.958;2023-09-30T04:14:13;101184.87;;;17.34;80.72
79374;BME280;68844;53.128;17.958;2023-09-30T04:16:39;101194.89;;;17.29;80.59
79374;BME280;68844;53.128;17.958;2023-09-30T04:19:07;101201.20;;;17.26;80.29
79374;BME280;68844;53.128;17.958;2023-09-30T04:21:36;101201.45;;;17.31;80.16
79374;BME280;68844;53.128;17.958;2023-09-30T04:24:05;101207.25;;;17.28;79.87
79374;BME280;68844;53.128;17.958;2023-09-30T04:26:33;101217.02;;;17.23;80.10
79374;BME280;68844;53.128;17.958;2023-09-30T04:28:59;101214.27;;;17.20;79.89
79374;BME280;68844;53.128;17.958;2023-09-30T04:31:31;101224.00;;;17.21;79.95
79374;BME280;68844;53.128;17.958;2023-09-30T04:33:58;101230.95;;;17.23;79.84
79374;BME280;68844;53.128;17.958;2023-09-30T04:36:25;101234.73;;;17.20;79.92
79374;BME280;68844;53.128;17.958;2023-09-30T04:38:51;101243.34;;;17.17;79.66
79374;BME280;68844;53.128;17.958;2023-09-30T04:41:18;101244.94;;;17.15;79.79
79374;BME280;68844;53.128;17.958;2023-09-30T04:43:45;101254.20;;;17.19;79.67
79374;BME280;68844;53.128;17.958;2023-09-30T04:46:12;101258.63;;;17.17;79.50
79374;BME280;68844;53.128;17.958;2023-09-30T04:48:40;101265.23;;;17.12;79.63
79374;BME280;68844;53.128;17.958;2023-09-30T04:51:07;101270.33;;;17.08;79.09
79374;BME280;68844;53.128;17.958;2023-09-30T04:53:34;101276.88;;;17.07;78.63
79374;BME280;68844;53.128;17.958;2023-09-30T04:56:02;101280.23;;;17.07;78.57
79374;BME280;68844;53.128;17.958;2023-09-30T04:58:29;101286.64;;;17.00;78.60
79374;BME280;68844;53.128;17.958;2023-09-30T05:00:56;101297.24;;;16.94;78.26
79374;BME280;68844;53.128;17.958;2023-09-30T05:03:22;101303.45;;;16.87;78.42
79374;BME280;68844;53.128;17.958;2023-09-30T05:05:51;101308.45;;;16.87;78.22
79374;BME280;68844;53.128;17.958;2023-09-30T05:08:20;101313.65;;;16.84;78.08
79374;BME280;68844;53.128;17.958;2023-09-30T05:10:46;101317.27;;;16.81;78.03
79374;BME280;68844;53.128;17.958;2023-09-30T05:13:13;101321.71;;;16.71;77.77
79374;BME280;68844;53.128;17.958;2023-09-30T05:15:40;101323.71;;;16.68;77.67
79374;BME280;68844;53.128;17.958;2023-09-30T05:18:08;101329.88;;;16.69;77.40
79374;BME280;68844;53.128;17.958;2023-09-30T05:20:36;101336.79;;;16.69;76.17
79374;BME280;68844;53.128;17.958;2023-09-30T05:23:04;101341.67;;;16.63;76.33
79374;BME280;68844;53.128;17.958;2023-09-30T05:25:30;101342.92;;;16.58;75.95
79374;BME280;68844;53.128;17.958;2023-09-30T05:27:57;101352.96;;;16.57;76.39
79374;BME280;68844;53.128;17.958;2023-09-30T05:30:23;101355.22;;;16.55;76.54
79374;BME280;68844;53.128;17.958;2023-09-30T05:32:51;101356.52;;;16.52;76.64
79374;BME280;68844;53.128;17.958;2023-09-30T05:35:19;101358.08;;;16.50;76.56
79374;BME280;68844;53.128;17.958;2023-09-30T05:37:48;101362.82;;;16.46;76.17
79374;BME280;68844;53.128;17.958;2023-09-30T05:40:20;101367.21;;;16.47;76.16
79374;BME280;68844;53.128;17.958;2023-09-30T05:42:54;101372.83;;;16.45;75.71
79374;BME280;68844;53.128;17.958;2023-09-30T05:45:25;101374.80;;;16.43;75.41
79374;BME280;68844;53.128;17.958;2023-09-30T05:47:55;101379.73;;;16.41;75.34
79374;BME280;68844;53.128;17.958;2023-09-30T05:50:23;101381.77;;;16.42;75.29
79374;BME280;68844;53.128;17.958;2023-09-30T05:52:54;101387.83;;;16.47;75.30
79374;BME280;68844;53.128;17.958;2023-09-30T05:55:25;101391.31;;;16.53;75.04
79374;BME280;68844;53.128;17.958;2023-09-30T05:57:52;101392.00;;;16.53;73.86
79374;BME280;68844;53.128;17.958;2023-09-30T06:00:19;101393.27;;;16.57;73.38
79374;BME280;68844;53.128;17.958;2023-09-30T06:02:57;101396.84;;;16.57;72.77
79374;BME280;68844;53.128;17.958;2023-09-30T06:05:24;101396.90;;;16.64;72.89
79374;BME280;68844;53.128;17.958;2023-09-30T06:07:56;101398.23;;;16.70;72.25
79374;BME280;68844;53.128;17.958;2023-09-30T06:10:23;101402.80;;;16.73;71.83
79374;BME280;68844;53.128;17.958;2023-09-30T06:12:51;101408.46;;;16.86;71.32
79374;BME280;68844;53.128;17.958;2023-09-30T06:15:22;101411.56;;;17.00;71.13
79374;BME280;68844;53.128;17.958;2023-09-30T06:17:52;101422.58;;;17.10;70.43
79374;BME280;68844;53.128;17.958;2023-09-30T06:20:20;101424.63;;;17.13;69.79
79374;BME280;68844;53.128;17.958;2023-09-30T06:22:49;101432.14;;;17.17;69.68
79374;BME280;68844;53.128;17.958;2023-09-30T06:25:17;101443.96;;;17.21;68.30
79374;BME280;68844;53.128;17.958;2023-09-30T06:27:44;101440.11;;;17.13;68.13
79374;BME280;68844;53.128;17.958;2023-09-30T06:30:12;101442.33;;;17.02;68.24
79374;BME280;68844;53.128;17.958;2023-09-30T06:32:39;101450.42;;;16.99;68.76
79374;BME280;68844;53.128;17.958;2023-09-30T06:35:09;101449.27;;;16.93;68.35
79374;BME280;68844;53.128;17.958;2023-09-30T06:37:39;101453.11;;;16.91;67.59
79374;BME280;68844;53.128;17.958;2023-09-30T06:40:07;101455.02;;;16.97;67.30
79374;BME280;68844;53.128;17.958;2023-09-30T06:42:35;101460.14;;;17.09;66.01
79374;BME280;68844;53.128;17.958;2023-09-30T06:45:04;101461.06;;;17.06;65.66
79374;BME280;68844;53.128;17.958;2023-09-30T06:47:37;101464.89;;;17.03;64.80
79374;BME280;68844;53.128;17.958;2023-09-30T06:50:08;101469.80;;;16.94;63.91
79374;BME280;68844;53.128;17.958;2023-09-30T06:52:38;101471.79;;;16.84;63.42
79374;BME280;68844;53.128;17.958;2023-09-30T06:55:06;101475.59;;;16.78;63.41
79374;BME280;68844;53.128;17.958;2023-09-30T06:57:37;101474.26;;;16.74;63.59
79374;BME280;68844;53.128;17.958;2023-09-30T07:00:08;101477.41;;;16.80;63.49
79374;BME280;68844;53.128;17.958;2023-09-30T07:02:36;101476.81;;;17.20;63.30
79374;BME280;68844;53.128;17.958;2023-09-30T07:05:10;101469.84;;;19.34;59.87
79374;BME280;68844;53.128;17.958;2023-09-30T07:07:39;101472.86;;;21.72;54.97
79374;BME280;68844;53.128;17.958;2023-09-30T07:10:11;101473.80;;;23.61;51.41
79374;BME280;68844;53.128;17.958;2023-09-30T07:12:38;101472.42;;;25.02;47.95
79374;BME280;68844;53.128;17.958;2023-09-30T07:15:06;101471.59;;;26.30;43.58
79374;BME280;68844;53.128;17.958;2023-09-30T07:17:34;101466.27;;;27.13;41.50
79374;BME280;68844;53.128;17.958;2023-09-30T07:20:01;101475.05;;;27.99;41.77
79374;BME280;68844;53.128;17.958;2023-09-30T07:22:28;101474.48;;;28.81;38.27
79374;BME280;68844;53.128;17.958;2023-09-30T07:24:55;101479.46;;;29.20;35.16
79374;BME280;68844;53.128;17.958;2023-09-30T07:27:22;101482.90;;;29.23;34.61
79374;BME280;68844;53.128;17.958;2023-09-30T07:29:49;101484.29;;;29.13;33.73
79374;BME280;68844;53.128;17.958;2023-09-30T07:32:16;101486.20;;;29.36;33.21
79374;BME280;68844;53.128;17.958;2023-09-30T07:34:43;101490.66;;;29.86;32.78
79374;BME280;68844;53.128;17.958;2023-09-30T07:37:10;101497.52;;;30.12;31.86
79374;BME280;68844;53.128;17.958;2023-09-30T07:39:36;101498.94;;;30.38;30.09
79374;BME280;68844;53.128;17.958;2023-09-30T07:42:03;101496.06;;;30.98;31.17
79374;BME280;68844;53.128;17.958;2023-09-30T07:44:30;101497.98;;;30.93;30.55
79374;BME280;68844;53.128;17.958;2023-09-30T07:46:58;101500.87;;;31.51;30.26
79374;BME280;68844;53.128;17.958;2023-09-30T07:49:25;101502.80;;;30.94;30.68
79374;BME280;68844;53.128;17.958;2023-09-30T07:51:51;101497.67;;;31.09;30.07
79374;BME280;68844;53.128;17.958;2023-09-30T07:54:18;101499.63;;;31.29;29.58
79374;BME280;68844;53.128;17.958;2023-09-30T07:56:44;101502.01;;;31.81;29.41
79374;BME280;68844;53.128;17.958;2023-09-30T07:59:11;101502.88;;;32.21;28.14
79374;BME280;68844;53.128;17.958;2023-09-30T08:01:38;101502.55;;;32.39;27.34
79374;BME280;68844;53.128;17.958;2023-09-30T08:04:04;101507.18;;;32.48;27.29
79374;BME280;68844;53.128;17.958;2023-09-30T08:06:31;101506.04;;;32.37;27.49
79374;BME280;68844;53.128;17.958;2023-09-30T08:08:58;101516.56;;;31.19;28.04
79374;BME280;68844;53.128;17.958;2023-09-30T08:11:24;101525.87;;;30.02;29.64
79374;BME280;68844;53.128;17.958;2023-09-30T08:13:57;101524.21;;;30.76;29.27
79374;BME280;68844;53.128;17.958;2023-09-30T08:16:25;101531.39;;;30.02;30.09
79374;BME280;68844;53.128;17.958;2023-09-30T08:18:52;101538.30;;;28.94;30.98
79374;BME280;68844;53.128;17.958;2023-09-30T08:21:18;101534.62;;;30.61;30.05
79374;BME280;68844;53.128;17.958;2023-09-30T08:23:45;101541.19;;;30.34;30.19
79374;BME280;68844;53.128;17.958;2023-09-30T08:26:11;101548.16;;;29.58;30.39
79374;BME280;68844;53.128;17.958;2023-09-30T08:28:38;101551.47;;;29.76;30.44
79374;BME280;68844;53.128;17.958;2023-09-30T08:31:05;101549.95;;;30.95;29.00
79374;BME280;68844;53.128;17.958;2023-09-30T08:33:32;101555.81;;;30.91;28.64
79374;BME280;68844;53.128;17.958;2023-09-30T08:36:03;101557.21;;;30.72;28.50
79374;BME280;68844;53.128;17.958;2023-09-30T08:38:38;101553.75;;;31.02;27.52
79374;BME280;68844;53.128;17.958;2023-09-30T08:41:05;101552.15;;;31.28;27.08
79374;BME280;68844;53.128;17.958;2023-09-30T08:43:37;101554.96;;;31.05;27.77
79374;BME280;68844;53.128;17.958;2023-09-30T08:46:05;101554.17;;;31.79;27.58
79374;BME280;68844;53.128;17.958;2023-09-30T08:48:33;101556.78;;;32.69;26.16
79374;BME280;68844;53.128;17.958;2023-09-30T08:51:01;101566.27;;;32.30;25.65
79374;BME280;68844;53.128;17.958;2023-09-30T08:53:29;101574.42;;;32.10;26.03
79374;BME280;68844;53.128;17.958;2023-09-30T08:55:56;101582.66;;;30.75;27.39
79374;BME280;68844;53.128;17.958;2023-09-30T08:58:27;101589.92;;;28.73;30.40
79374;BME280;68844;53.128;17.958;2023-09-30T09:00:55;101595.08;;;27.65;31.76
79374;BME280;68844;53.128;17.958;2023-09-30T09:03:23;101604.05;;;26.65;33.29
79374;BME280;68844;53.128;17.958;2023-09-30T09:05:56;101608.66;;;25.50;34.97
79374;BME280;68844;53.128;17.958;2023-09-30T09:08:26;101610.66;;;24.31;37.39
79374;BME280;68844;53.128;17.958;2023-09-30T09:10:55;101616.88;;;24.97;37.49
79374;BME280;68844;53.128;17.958;2023-09-30T09:13:24;101610.23;;;27.38;33.96
79374;BME280;68844;53.128;17.958;2023-09-30T09:16:09;101605.11;;;27.51;34.20
79374;BME280;68844;53.128;17.958;2023-09-30T09:18:37;101601.92;;;27.56;34.82
79374;BME280;68844;53.128;17.958;2023-09-30T09:21:21;101604.36;;;26.73;35.10
79374;BME280;68844;53.128;17.958;2023-09-30T09:23:51;101606.81;;;25.79;36.34
79374;BME280;68844;53.128;17.958;2023-09-30T09:26:25;101612.11;;;27.26;33.39
79374;BME280;68844;53.128;17.958;2023-09-30T09:28:59;101607.46;;;28.71;30.96
79374;BME280;68844;53.128;17.958;2023-09-30T09:31:27;101607.41;;;28.33;31.34
79374;BME280;68844;53.128;17.958;2023-09-30T09:33:55;101615.50;;;26.46;34.15
79374;BME280;68844;53.128;17.958;2023-09-30T09:36:38;101617.23;;;27.29;34.05
79374;BME280;68844;53.128;17.958;2023-09-30T09:39:06;101609.44;;;28.57;32.33
79374;BME280;68844;53.128;17.958;2023-09-30T09:41:33;101610.77;;;28.89;31.56
79374;BME280;68844;53.128;17.958;2023-09-30T09:44:16;101612.08;;;30.18;30.49
79374;BME280;68844;53.128;17.958;2023-09-30T09:46:44;101608.38;;;31.33;28.49
79374;BME280;68844;53.128;17.958;2023-09-30T09:49:12;101607.88;;;31.83;27.32
79374;BME280;68844;53.128;17.958;2023-09-30T09:51:39;101609.34;;;31.98;27.57
79374;BME280;68844;53.128;17.958;2023-09-30T09:54:06;101607.70;;;32.74;26.26
79374;BME280;68844;53.128;17.958;2023-09-30T09:56:34;101610.95;;;33.11;26.42
79374;BME280;68844;53.128;17.958;2023-09-30T09:59:04;101619.73;;;31.53;27.94
79374;BME280;68844;53.128;17.958;2023-09-30T10:01:33;101622.23;;;30.03;29.17
79374;BME280;68844;53.128;17.958;2023-09-30T10:04:01;101631.39;;;30.83;28.60
79374;BME280;68844;53.128;17.958;2023-09-30T10:06:28;101621.17;;;31.67;26.49
79374;BME280;68844;53.128;17.958;2023-09-30T10:08:55;101618.59;;;31.99;25.90
79374;BME280;68844;53.128;17.958;2023-09-30T10:11:24;101620.07;;;31.57;24.50
79374;BME280;68844;53.128;17.958;2023-09-30T10:19:12;101629.63;;;28.02;29.21
79374;BME280;68844;53.128;17.958;2023-09-30T10:21:39;101630.58;;;28.11;29.29
79374;BME280;68844;53.128;17.958;2023-09-30T10:33:12;101650.28;;;24.16;34.37
79374;BME280;68844;53.128;17.958;2023-09-30T10:35:44;101651.13;;;24.03;35.31
79374;BME280;68844;53.128;17.958;2023-09-30T10:38:43;101655.61;;;24.69;35.54
79374;BME280;68844;53.128;17.958;2023-09-30T10:44:37;101650.46;;;27.08;33.37
79374;BME280;68844;53.128;17.958;2023-09-30T10:47:41;101642.73;;;28.13;31.79
79374;BME280;68844;53.128;17.958;2023-09-30T10:51:12;101641.43;;;28.74;30.94
79374;BME280;68844;53.128;17.958;2023-09-30T10:53:23;101643.92;;;29.09;30.71
79374;BME280;68844;53.128;17.958;2023-09-30T10:55:58;101646.41;;;29.46;30.05
79374;BME280;68844;53.128;17.958;2023-09-30T10:58:46;101649.09;;;28.97;30.15
79374;BME280;68844;53.128;17.958;2023-09-30T11:01:18;101652.92;;;28.36;30.93
79374;BME280;68844;53.128;17.958;2023-09-30T11:03:47;101653.41;;;27.76;31.70
79374;BME280;68844;53.128;17.958;2023-09-30T11:06:20;101652.11;;;27.68;32.00
79374;BME280;68844;53.128;17.958;2023-09-30T11:08:55;101656.94;;;26.99;32.58
79374;BME280;68844;53.128;17.958;2023-09-30T11:11:37;101660.38;;;26.08;33.08
79374;BME280;68844;53.128;17.958;2023-09-30T11:14:23;101655.46;;;25.65;32.90
79374;BME280;68844;53.128;17.958;2023-09-30T11:16:53;101660.67;;;25.10;33.61
79374;BME280;68844;53.128;17.958;2023-09-30T11:19:21;101667.55;;;24.27;34.85
79374;BME280;68844;53.128;17.958;2023-09-30T11:21:54;101667.77;;;23.84;36.27
79374;BME280;68844;53.128;17.958;2023-09-30T11:24:26;101666.39;;;23.67;37.33
79374;BME280;68844;53.128;17.958;2023-09-30T11:26:58;101668.15;;;23.90;37.46
79374;BME280;68844;53.128;17.958;2023-09-30T11:29:26;101663.42;;;24.29;36.04
79374;BME280;68844;53.128;17.958;2023-09-30T11:31:55;101656.70;;;24.49;35.92
79374;BME280;68844;53.128;17.958;2023-09-30T11:40:39;101661.33;;;24.32;35.60
79374;BME280;68844;53.128;17.958;2023-09-30T11:43:09;101668.35;;;24.00;36.47
79374;BME280;68844;53.128;17.958;2023-09-30T11:45:38;101670.45;;;23.80;36.36
79374;BME280;68844;53.128;17.958;2023-09-30T11:48:18;101666.45;;;23.46;36.68
79374;BME280;68844;53.128;17.958;2023-09-30T11:50:49;101666.52;;;22.96;37.60
79374;BME280;68844;53.128;17.958;2023-09-30T11:53:17;101668.90;;;22.71;38.62
79374;BME280;68844;53.128;17.958;2023-09-30T11:55:44;101668.30;;;22.66;38.79
79374;BME280;68844;53.128;17.958;2023-09-30T11:58:12;101670.52;;;22.44;37.94
79374;BME280;68844;53.128;17.958;2023-09-30T12:00:44;101671.12;;;22.16;38.17
79374;BME280;68844;53.128;17.958;2023-09-30T12:03:12;101667.12;;;21.95;39.24
79374;BME280;68844;53.128;17.958;2023-09-30T12:05:38;101669.81;;;21.99;39.59
79374;BME280;68844;53.128;17.958;2023-09-30T12:08:05;101669.65;;;21.99;39.35
79374;BME280;68844;53.128;17.958;2023-09-30T12:10:33;101668.95;;;21.93;39.89
79374;BME280;68844;53.128;17.958;2023-09-30T12:13:01;101665.52;;;22.03;40.20
79374;BME280;68844;53.128;17.958;2023-09-30T12:15:27;101661.77;;;22.20;39.67
79374;BME280;68844;53.128;17.958;2023-09-30T12:17:54;101659.17;;;22.08;39.02
79374;BME280;68844;53.128;17.958;2023-09-30T12:20:21;101663.46;;;22.00;39.20
79374;BME280;68844;53.128;17.958;2023-09-30T12:22:47;101665.04;;;22.10;39.49
79374;BME280;68844;53.128;17.958;2023-09-30T12:25:15;101654.17;;;22.27;39.13
79374;BME280;68844;53.128;17.958;2023-09-30T12:27:43;101656.41;;;22.26;38.06
79374;BME280;68844;53.128;17.958;2023-09-30T12:30:12;101661.98;;;22.14;38.02
79374;BME280;68844;53.128;17.958;2023-09-30T12:32:40;101657.14;;;22.11;39.04
79374;BME280;68844;53.128;17.958;2023-09-30T12:35:07;101654.73;;;22.13;39.55
79374;BME280;68844;53.128;17.958;2023-09-30T12:37:34;101663.10;;;22.06;39.55
79374;BME280;68844;53.128;17.958;2023-09-30T12:40:01;101665.93;;;21.90;39.31
79374;BME280;68844;53.128;17.958;2023-09-30T12:42:30;101669.44;;;21.75;40.35
79374;BME280;68844;53.128;17.958;2023-09-30T12:44:56;101672.83;;;21.68;40.04
79374;BME280;68844;53.128;17.958;2023-09-30T12:47:23;101680.20;;;21.45;40.26
79374;BME280;68844;53.128;17.958;2023-09-30T12:49:49;101669.98;;;21.27;39.75
79374;BME280;68844;53.128;17.958;2023-09-30T12:52:16;101673.92;;;21.23;40.49
79374;BME280;68844;53.128;17.958;2023-09-30T12:54:43;101675.57;;;21.31;40.79
79374;BME280;68844;53.128;17.958;2023-09-30T12:57:09;101674.59;;;21.36;41.03
79374;BME280;68844;53.128;17.958;2023-09-30T12:59:39;101673.02;;;21.39;41.17
79374;BME280;68844;53.128;17.958;2023-09-30T13:02:05;101671.14;;;21.40;40.42
79374;BME280;68844;53.128;17.958;2023-09-30T13:04:32;101675.58;;;21.33;40.65
79374;BME280;68844;53.128;17.958;2023-09-30T13:06:59;101671.82;;;21.18;40.42
79374;BME280;68844;53.128;17.958;2023-09-30T13:09:25;101672.50;;;21.16;40.79
79374;BME280;68844;53.128;17.958;2023-09-30T13:11:52;101675.61;;;21.07;41.18
79374;BME280;68844;53.128;17.958;2023-09-30T13:14:19;101674.20;;;20.99;42.07
79374;BME280;68844;53.128;17.958;2023-09-30T13:16:45;101674.16;;;20.93;41.66